Time;durP1;ratioP1;P1;durP2;ratioP2;P2;SDS_P1;SDS_P2;PMS_P1;PMS_P2;Temp;Humidity;BMP_temperature;BMP_pressure;BME280_temperature;BME280_humidity;BME280_pressure;Samples;Min_cycle;Max_cycle;Signal;HPM_P1;HPM_P2
2022/07/27 00:00:13;;;;;;;;;2.33;2.33;;;;;20.71;57.27;101440.56;5079677;28;45481;-71
2022/07/27 00:02:38;;;;;;;;;2.00;2.00;;;;;20.68;56.89;101428.31;5079301;28;45392;-71
2022/07/27 00:05:03;;;;;;;;;1.67;1.67;;;;;20.61;56.96;101423.00;5079292;28;45338;-71
2022/07/27 00:07:29;;;;;;;;;4.00;3.00;;;;;20.69;57.54;101432.69;5079489;28;45407;-71
2022/07/27 00:09:54;;;;;;;;;1.33;1.33;;;;;20.70;57.54;101418.13;5077281;28;45705;-71
2022/07/27 00:12:19;;;;;;;;;2.00;2.00;;;;;20.72;57.21;101431.41;5079411;28;45429;-71
2022/07/27 00:14:45;;;;;;;;;4.00;3.00;;;;;20.65;57.17;101416.09;5078934;28;46145;-71
2022/07/27 00:17:10;;;;;;;;;2.00;2.00;;;;;20.61;58.06;101425.72;5086297;27;45317;-71
2022/07/27 00:19:36;;;;;;;;;3.00;3.00;;;;;20.55;57.91;101413.94;5079497;28;45552;-71
2022/07/27 00:22:01;;;;;;;;;3.67;3.67;;;;;20.60;58.07;101428.63;5093158;27;45574;-71
2022/07/27 00:24:26;;;;;;;;;3.33;3.33;;;;;20.59;58.47;101427.00;5078921;28;45423;-71
2022/07/27 00:26:52;;;;;;;;;3.00;3.00;;;;;20.53;58.62;101424.13;5079372;27;45263;-71
2022/07/27 00:29:17;;;;;;;;;4.00;4.00;;;;;20.49;58.86;101425.63;5093136;27;45400;-71
2022/07/27 00:31:43;;;;;;;;;3.00;3.00;;;;;20.46;59.13;101427.94;5079188;28;45314;-71
2022/07/27 00:34:08;;;;;;;;;5.00;5.00;;;;;20.48;58.87;101425.84;5090755;27;47021;-71
2022/07/27 00:36:33;;;;;;;;;4.00;3.00;;;;;20.47;59.19;101421.50;5082671;27;45358;-71
2022/07/27 00:38:59;;;;;;;;;2.67;2.67;;;;;20.47;59.50;101426.91;5077857;28;45797;-71
2022/07/27 00:41:24;;;;;;;;;2.00;2.00;;;;;20.46;59.48;101423.38;5078830;27;45460;-71
2022/07/27 00:43:53;;;;;;;;;3.67;3.67;;;;;20.47;59.58;101432.31;5086258;27;48159;-71
2022/07/27 00:46:18;;;;;;;;;3.67;2.00;;;;;20.37;59.99;101420.16;5078642;28;45237;-71
2022/07/27 00:48:44;;;;;;;;;2.33;2.33;;;;;20.40;59.96;101424.28;5079035;28;45436;-71
2022/07/27 00:51:09;;;;;;;;;4.67;3.00;;;;;20.37;60.00;101425.53;5078554;28;45394;-71
2022/07/27 00:53:35;;;;;;;;;4.00;4.00;;;;;20.38;60.00;101423.69;5083976;27;47442;-71
2022/07/27 00:56:00;;;;;;;;;3.00;2.67;;;;;20.35;59.88;101426.84;5082205;28;45286;-71
2022/07/27 00:58:26;;;;;;;;;4.00;4.00;;;;;20.34;60.02;101419.75;5082392;28;45341;-70
2022/07/27 01:00:51;;;;;;;;;4.00;4.00;;;;;20.30;59.98;101420.19;5082155;28;45292;-71
2022/07/27 01:03:16;;;;;;;;;6.00;6.00;;;;;20.26;60.66;101402.81;5077345;28;46857;-71
2022/07/27 01:05:42;;;;;;;;;5.00;4.67;;;;;20.29;60.55;101417.72;5070934;28;45263;-71
2022/07/27 01:08:10;;;;;;;;;3.00;3.00;;;;;20.25;60.37;101414.66;5093866;27;45367;-71
2022/07/27 01:10:37;;;;;;;;;2.67;2.67;;;;;20.24;60.77;101402.22;5081949;28;45358;-71
2022/07/27 01:13:03;;;;;;;;;4.00;4.00;;;;;20.22;60.52;101408.88;5081681;28;45393;-71
2022/07/27 01:15:29;;;;;;;;;4.67;4.00;;;;;20.17;60.88;101406.84;5084076;27;45391;-71
2022/07/27 01:17:55;;;;;;;;;5.33;5.00;;;;;20.12;60.62;101391.34;5088747;27;45293;-71
2022/07/27 01:20:20;;;;;;;;;2.67;2.33;;;;;20.12;60.95;101396.75;5081829;28;45272;-71
2022/07/27 01:22:45;;;;;;;;;4.67;4.00;;;;;20.09;60.86;101390.97;5087980;27;47203;-71
2022/07/27 01:25:11;;;;;;;;;3.67;3.00;;;;;20.03;61.27;101401.56;5081858;28;45355;-71
2022/07/27 01:27:37;;;;;;;;;3.00;2.67;;;;;20.00;61.00;101402.00;5076993;27;45354;-71
2022/07/27 01:30:25;;;;;;;;;4.33;4.33;;;;;19.98;61.87;101400.56;5072373;28;45354;-71
2022/07/27 01:32:48;;;;;;;;;4.00;3.67;;;;;19.91;61.77;101401.44;5081484;28;46008;-71
2022/07/27 01:35:15;;;;;;;;;4.00;3.33;;;;;19.87;61.70;101396.75;5081742;28;45333;-71
2022/07/27 01:37:40;;;;;;;;;4.00;4.00;;;;;19.86;62.02;101395.06;5076948;28;45882;-71
2022/07/27 01:40:06;;;;;;;;;4.33;4.33;;;;;19.86;62.32;101392.38;5069529;28;46455;-71
2022/07/27 01:42:31;;;;;;;;;5.33;5.33;;;;;19.90;62.21;101401.66;5081109;28;45371;-71
2022/07/27 01:44:56;;;;;;;;;3.00;3.00;;;;;19.85;62.31;101401.50;5081812;28;45326;-70
2022/07/27 01:47:21;;;;;;;;;5.00;5.00;;;;;19.84;62.64;101397.19;5081736;28;45274;-71
2022/07/27 01:49:47;;;;;;;;;3.67;3.67;;;;;19.85;62.85;101396.97;5081295;28;45248;-70
2022/07/27 01:52:12;;;;;;;;;4.67;4.67;;;;;19.84;62.49;101402.56;5081273;28;45654;-71
2022/07/27 01:54:37;;;;;;;;;5.00;4.00;;;;;19.77;62.67;101389.97;5081304;28;45354;-71
2022/07/27 01:57:03;;;;;;;;;5.00;4.00;;;;;19.75;63.13;101397.44;5086162;27;45363;-70
2022/07/27 01:59:28;;;;;;;;;3.00;3.00;;;;;19.64;63.42;101395.47;5079541;28;46565;-71
2022/07/27 02:01:53;;;;;;;;;4.00;4.00;;;;;19.56;63.65;101399.25;5081165;28;45302;-71
2022/07/27 02:04:19;;;;;;;;;6.00;5.67;;;;;19.48;63.26;101394.94;5089395;27;46535;-70
2022/07/27 02:06:44;;;;;;;;;5.00;5.00;;;;;19.45;63.77;101387.28;5081340;28;45314;-70
2022/07/27 02:09:10;;;;;;;;;3.00;3.00;;;;;19.45;63.78;101387.28;5081087;28;45281;-70
2022/07/27 02:14:19;;;;;;;;;5.67;4.67;;;;;19.37;64.28;101391.09;5080826;28;45341;-71
2022/07/27 02:16:44;;;;;;;;;5.67;5.67;;;;;19.41;64.72;101394.16;5087497;27;45456;-70
2022/07/27 02:19:09;;;;;;;;;5.00;4.00;;;;;19.40;64.15;101395.22;5085015;27;46257;-70
2022/07/27 02:21:35;;;;;;;;;7.00;5.00;;;;;19.37;64.18;101398.34;5080672;28;46542;-71
2022/07/27 02:24:00;;;;;;;;;5.33;5.33;;;;;19.33;64.07;101399.84;5080769;28;45282;-70
2022/07/27 02:26:26;;;;;;;;;7.00;6.00;;;;;19.30;64.56;101399.22;5081237;27;45283;-70
2022/07/27 02:28:51;;;;;;;;;5.33;5.33;;;;;19.27;64.34;101390.72;5080519;28;45236;-70
2022/07/27 02:31:17;;;;;;;;;8.00;8.00;;;;;19.23;64.63;101395.72;5080835;28;45411;-70
2022/07/27 02:33:42;;;;;;;;;3.00;3.00;;;;;19.17;64.53;101399.28;5080813;28;45381;-70
2022/07/27 02:36:07;;;;;;;;;5.00;5.00;;;;;19.10;64.95;101398.50;5080796;27;45575;-70
2022/07/27 02:38:33;;;;;;;;;4.00;4.00;;;;;19.06;64.67;101398.06;5080717;28;45235;-70
2022/07/27 02:40:58;;;;;;;;;6.00;5.00;;;;;18.97;65.05;101389.41;5078970;28;48408;-71
2022/07/27 02:43:23;;;;;;;;;4.67;4.00;;;;;18.91;65.79;101390.25;5080581;28;45384;-70
2022/07/27 02:45:50;;;;;;;;;5.67;5.67;;;;;18.86;65.86;101393.59;5080769;28;45711;-70
2022/07/27 02:48:15;;;;;;;;;6.00;4.67;;;;;18.77;65.97;101392.22;5080590;28;45398;-71
2022/07/27 02:50:40;;;;;;;;;5.00;5.00;;;;;18.73;65.76;101399.88;5080375;28;45374;-70
2022/07/27 02:53:06;;;;;;;;;4.67;4.67;;;;;18.67;66.04;101396.19;5078958;28;46000;-71
2022/07/27 02:55:31;;;;;;;;;5.33;5.33;;;;;18.61;66.30;101396.19;5080680;28;45311;-70
2022/07/27 02:57:56;;;;;;;;;4.00;3.00;;;;;18.59;66.01;101403.66;5080273;28;45565;-71
2022/07/27 03:00:22;;;;;;;;;4.00;4.00;;;;;18.50;66.37;101401.19;5078978;28;47392;-71
2022/07/27 03:02:48;;;;;;;;;5.67;5.00;;;;;18.44;66.80;101385.91;5080278;28;45350;-71
2022/07/27 03:05:13;;;;;;;;;5.00;5.00;;;;;18.38;67.08;101384.88;5080689;28;45367;-70
2022/07/27 03:07:39;;;;;;;;;6.00;6.00;;;;;18.37;67.13;101387.75;5079990;28;45380;-70
2022/07/27 03:10:05;;;;;;;;;5.00;5.00;;;;;18.35;66.73;101390.66;5079921;28;45475;-71
2022/07/27 03:12:31;;;;;;;;;4.00;4.00;;;;;18.30;66.70;101393.19;5080182;28;45246;-71
2022/07/27 03:14:56;;;;;;;;;7.67;6.00;;;;;18.32;67.24;101392.97;5080241;28;45428;-70
2022/07/27 03:17:21;;;;;;;;;7.00;5.33;;;;;18.23;67.25;101395.84;5085843;27;45498;-71
2022/07/27 03:19:48;;;;;;;;;5.00;4.33;;;;;18.26;67.73;101389.25;5079993;28;45313;-71
2022/07/27 03:22:14;;;;;;;;;5.33;5.00;;;;;18.24;67.21;101383.25;5080154;28;45728;-71
2022/07/27 03:24:39;;;;;;;;;7.67;6.33;;;;;18.24;67.62;101381.41;5079680;28;45418;-71
2022/07/27 03:27:04;;;;;;;;;6.67;6.00;;;;;18.19;67.42;101385.75;5075359;27;45872;-71
2022/07/27 03:29:30;;;;;;;;;5.00;4.67;;;;;18.14;67.40;101392.56;5081267;27;47178;-71
2022/07/27 03:31:55;;;;;;;;;7.00;6.00;;;;;18.13;67.25;101395.47;5080069;27;45314;-71
2022/07/27 03:34:20;;;;;;;;;5.33;5.33;;;;;18.11;67.35;101394.88;5079763;28;45360;-71
2022/07/27 03:36:46;;;;;;;;;7.00;6.00;;;;;18.05;67.50;101393.81;5078522;28;45851;-70
2022/07/27 03:39:12;;;;;;;;;6.00;6.00;;;;;17.99;67.81;101387.38;5079474;28;46336;-70
2022/07/27 03:41:38;;;;;;;;;4.00;4.00;;;;;18.03;67.65;101394.03;5078403;28;46048;-71
2022/07/27 03:44:03;;;;;;;;;8.00;5.67;;;;;17.96;67.46;101395.84;5078335;28;45279;-70
2022/07/27 03:46:29;;;;;;;;;7.00;6.00;;;;;17.90;68.16;101381.38;5094902;27;46331;-70
2022/07/27 03:48:55;;;;;;;;;7.67;6.67;;;;;17.90;67.37;101380.59;5079447;28;46452;-71
2022/07/27 03:51:21;;;;;;;;;6.00;6.00;;;;;17.85;67.77;101375.00;5079367;28;45227;-70
2022/07/27 03:53:47;;;;;;;;;6.00;6.00;;;;;17.86;67.88;101385.53;5078181;28;45422;-71
2022/07/27 03:56:12;;;;;;;;;6.00;6.00;;;;;17.77;67.53;101379.53;5077846;28;47596;-70
2022/07/27 03:58:37;;;;;;;;;3.00;3.00;;;;;17.77;67.39;101386.78;5079152;28;45245;-71
2022/07/27 04:01:03;;;;;;;;;7.67;4.67;;;;;17.74;68.09;101388.03;5078247;28;45255;-71
2022/07/27 04:03:28;;;;;;;;;5.00;4.67;;;;;17.68;67.65;101386.16;5079600;28;45524;-71
2022/07/27 04:05:53;;;;;;;;;6.00;5.00;;;;;17.67;68.22;101387.19;5079570;28;45311;-71
2022/07/27 04:08:20;;;;;;;;;6.00;6.00;;;;;17.59;68.13;101390.91;5092394;27;47485;-71
2022/07/27 04:10:46;;;;;;;;;5.00;5.00;;;;;17.57;67.88;101395.66;5079190;28;45366;-71
2022/07/27 04:13:12;;;;;;;;;8.33;6.67;;;;;17.53;68.18;101405.16;5079043;28;45449;-71
2022/07/27 04:15:37;;;;;;;;;5.33;4.33;;;;;17.42;68.18;101395.88;5079487;27;45478;-70
2022/07/27 04:18:03;;;;;;;;;5.67;5.67;;;;;17.40;68.51;101389.84;5085358;27;46344;-71
2022/07/27 04:20:28;;;;;;;;;6.00;6.00;;;;;17.37;68.49;101401.84;5094276;27;45354;-70
2022/07/27 04:22:54;;;;;;;;;6.00;5.00;;;;;17.32;68.32;101403.47;5079243;28;45341;-70
2022/07/27 04:25:20;;;;;;;;;6.33;6.00;;;;;17.25;68.74;101398.94;5079011;28;45318;-70
2022/07/27 04:27:46;;;;;;;;;5.33;5.33;;;;;17.21;68.58;101403.03;5092996;27;47171;-71
2022/07/27 04:30:11;;;;;;;;;5.33;5.33;;;;;17.21;69.20;101412.97;5074572;28;45349;-72
2022/07/27 04:32:37;;;;;;;;;6.00;5.00;;;;;17.16;69.46;101408.19;5081324;28;45311;-72
2022/07/27 04:35:03;;;;;;;;;5.67;5.67;;;;;17.16;69.61;101409.00;5082802;28;45407;-72
2022/07/27 04:37:29;;;;;;;;;5.00;4.67;;;;;17.13;69.53;101398.69;5080940;28;47114;-72
2022/07/27 04:39:57;;;;;;;;;6.33;6.33;;;;;17.13;69.38;101400.53;5082670;28;45302;-72
2022/07/27 04:42:22;;;;;;;;;4.33;4.00;;;;;17.10;69.45;101395.56;5092207;27;45253;-72
2022/07/27 04:44:48;;;;;;;;;6.33;6.00;;;;;17.11;69.82;101397.22;5082348;28;45407;-72
2022/07/27 04:47:13;;;;;;;;;4.67;4.67;;;;;17.13;69.47;101396.00;5082509;28;45584;-72
2022/07/27 04:49:38;;;;;;;;;4.33;4.33;;;;;17.15;69.33;101406.53;5096047;27;45462;-72
2022/07/27 04:52:04;;;;;;;;;5.67;4.33;;;;;17.09;69.50;101399.28;5081316;28;45707;-72
2022/07/27 04:54:29;;;;;;;;;6.67;6.33;;;;;17.09;69.29;101401.97;5082254;28;45319;-71
2022/07/27 04:56:54;;;;;;;;;5.00;4.33;;;;;17.06;69.36;101400.47;5082346;27;46204;-72
2022/07/27 04:59:20;;;;;;;;;5.67;4.00;;;;;17.06;69.79;101405.03;5082171;28;45302;-71
2022/07/27 05:01:45;;;;;;;;;6.00;6.00;;;;;17.04;69.73;101402.53;5082244;28;45333;-71
2022/07/27 05:04:11;;;;;;;;;5.33;5.33;;;;;17.04;69.66;101414.09;5082275;28;45395;-71
2022/07/27 05:06:36;;;;;;;;;4.33;4.00;;;;;17.01;69.35;101409.16;5081903;28;45610;-71
2022/07/27 05:09:01;;;;;;;;;5.67;5.67;;;;;17.02;69.27;101407.28;5086997;27;45508;-71
2022/07/27 05:11:27;;;;;;;;;6.00;6.00;;;;;16.99;69.66;101400.47;5080634;28;45319;-71
2022/07/27 05:13:52;;;;;;;;;16.33;13.00;;;;;17.00;69.86;101396.72;5077099;28;46582;-74
2022/07/27 05:16:18;;;;;;;;;6.00;5.00;;;;;17.04;70.07;101400.66;5079898;27;47985;-74
2022/07/27 05:18:44;;;;;;;;;5.67;5.67;;;;;17.02;69.73;101400.06;5081311;27;45740;-74
2022/07/27 05:21:11;;;;;;;;;6.00;6.00;;;;;17.05;69.14;101406.88;5082179;28;45353;-74
2022/07/27 05:23:36;;;;;;;;;4.67;4.67;;;;;17.09;69.82;101415.41;5081581;27;45477;-74
2022/07/27 05:26:01;;;;;;;;;7.00;6.00;;;;;17.10;69.99;101407.16;5081669;28;45337;-73
2022/07/27 05:28:27;;;;;;;;;4.00;4.00;;;;;17.16;70.01;101421.63;5081670;28;45313;-73
2022/07/27 05:30:52;;;;;;;;;5.67;5.00;;;;;17.13;69.79;101404.06;5081951;28;45405;-73
2022/07/27 05:33:18;;;;;;;;;6.00;5.33;;;;;17.23;69.79;101421.63;5080388;28;47205;-73
2022/07/27 05:35:43;;;;;;;;;6.00;5.00;;;;;17.27;69.45;101422.91;5081685;28;45521;-73
2022/07/27 05:38:08;;;;;;;;;4.00;4.00;;;;;17.27;69.44;101429.09;5084191;27;45339;-73
2022/07/27 05:40:34;;;;;;;;;5.67;4.00;;;;;17.28;69.63;101422.69;5079834;28;45325;-73
2022/07/27 05:43:00;;;;;;;;;3.33;2.00;;;;;17.37;69.30;101430.56;5081222;28;45552;-73
2022/07/27 05:45:25;;;;;;;;;6.67;6.67;;;;;17.36;69.27;101418.16;5081519;28;45304;-73
2022/07/27 05:47:53;;;;;;;;;4.67;4.67;;;;;17.44;69.15;101428.72;5081487;28;45383;-73
2022/07/27 05:50:18;;;;;;;;;7.67;6.00;;;;;17.44;69.34;101427.88;5080419;28;45530;-73
2022/07/27 05:52:44;;;;;;;;;5.00;5.00;;;;;17.48;68.88;101435.31;5079740;28;45902;-73
2022/07/27 05:55:10;;;;;;;;;7.33;5.00;;;;;17.51;68.05;101442.97;5081558;28;45339;-73
2022/07/27 05:57:36;;;;;;;;;4.67;4.00;;;;;17.51;68.40;101442.97;5076478;28;45437;-73
2022/07/27 06:00:04;;;;;;;;;4.67;4.00;;;;;17.53;67.84;101438.25;5078912;28;45281;-73
2022/07/27 06:02:30;;;;;;;;;4.00;4.00;;;;;17.49;67.97;101426.25;5081264;28;45262;-73
2022/07/27 06:04:56;;;;;;;;;5.00;5.00;;;;;17.60;68.58;101438.25;5080970;28;45479;-73
2022/07/27 06:10:05;;;;;;;;;7.67;6.00;;;;;17.63;67.87;101437.03;5081012;28;45170;-73
2022/07/27 06:12:42;;;;;;;;;6.00;5.67;;;;;17.69;68.06;101433.50;5079777;28;47152;-73
2022/07/27 06:15:09;;;;;;;;;4.00;3.00;;;;;17.64;68.17;101417.16;5079691;28;47455;-73
2022/07/27 06:17:35;;;;;;;;;4.00;4.00;;;;;17.76;67.71;101434.34;5093095;27;45457;-73
2022/07/27 06:20:02;;;;;;;;;4.67;4.67;;;;;17.75;67.25;101448.81;5081118;28;45311;-73
2022/07/27 06:22:27;;;;;;;;;5.33;4.33;;;;;17.75;67.37;101442.63;5079388;28;46183;-73
2022/07/27 06:24:53;;;;;;;;;3.00;3.00;;;;;17.76;67.75;101438.91;5079779;28;47241;-73
2022/07/27 06:27:18;;;;;;;;;3.00;3.00;;;;;17.77;67.47;101437.84;5079624;28;45356;-73
2022/07/27 06:29:44;;;;;;;;;8.67;5.00;;;;;17.76;67.74;101441.56;5081856;28;45227;-73
2022/07/27 06:32:09;;;;;;;;;3.67;3.67;;;;;17.79;67.40;101435.78;5081544;28;45426;-73
2022/07/27 06:34:34;;;;;;;;;4.00;4.00;;;;;17.87;67.58;101442.84;5081240;28;45293;-73
2022/07/27 06:37:00;;;;;;;;;4.67;4.67;;;;;17.86;67.74;101436.63;5080066;28;45231;-73
2022/07/27 06:39:26;;;;;;;;;6.67;6.67;;;;;17.89;67.96;101441.59;5081528;28;45254;-73
2022/07/27 06:41:51;;;;;;;;;3.00;3.00;;;;;17.94;68.01;101442.81;5081536;28;45230;-73
2022/07/27 06:44:16;;;;;;;;;4.33;4.00;;;;;17.99;67.95;101441.16;5079409;28;47393;-73
2022/07/27 06:46:42;;;;;;;;;4.00;3.67;;;;;18.07;67.03;101445.50;5078683;28;45461;-73
2022/07/27 06:49:08;;;;;;;;;4.67;4.33;;;;;18.11;67.59;101429.84;5080904;27;45288;-73
2022/07/27 06:51:33;;;;;;;;;6.00;6.00;;;;;18.12;67.37;101434.16;5074746;27;47028;-73
2022/07/27 06:53:59;;;;;;;;;4.33;4.33;;;;;18.23;67.25;101441.59;5075853;28;46312;-73
2022/07/27 06:56:24;;;;;;;;;4.00;4.00;;;;;18.33;67.40;101435.81;5080677;27;45389;-73
2022/07/27 06:58:50;;;;;;;;;4.67;4.67;;;;;18.42;66.80;101428.34;5095927;27;45381;-73
2022/07/27 07:01:16;;;;;;;;;4.67;4.67;;;;;18.58;66.75;101431.63;5080501;28;45394;-73
2022/07/27 07:03:42;;;;;;;;;5.00;5.00;;;;;18.60;67.00;101435.75;5080178;28;46401;-73
2022/07/27 07:06:07;;;;;;;;;4.67;3.67;;;;;18.63;66.35;101431.81;5080507;28;45359;-73
2022/07/27 07:08:32;;;;;;;;;5.33;3.67;;;;;18.72;66.81;101441.31;5077607;28;45292;-73
2022/07/27 07:10:58;;;;;;;;;5.00;5.00;;;;;18.75;66.20;101430.13;5080347;28;45278;-73
2022/07/27 07:13:23;;;;;;;;;5.00;4.00;;;;;18.90;66.12;101448.72;5089479;27;48640;-73
2022/07/27 07:15:48;;;;;;;;;5.67;4.67;;;;;18.98;65.82;101453.03;5082236;27;45349;-73
2022/07/27 07:18:14;;;;;;;;;5.67;5.67;;;;;19.02;65.47;101448.03;5089095;27;45253;-73
2022/07/27 07:20:40;;;;;;;;;4.67;4.00;;;;;19.13;65.14;101452.75;5079262;27;47161;-73
2022/07/27 07:23:06;;;;;;;;;6.00;6.00;;;;;19.14;65.25;101434.75;5084895;27;47416;-73
2022/07/27 07:25:32;;;;;;;;;7.67;7.00;;;;;19.24;64.73;101450.47;5078728;28;45625;-73
2022/07/27 07:27:58;;;;;;;;;6.00;6.00;;;;;19.31;64.82;101448.56;5071561;28;45348;-73
2022/07/27 07:30:24;;;;;;;;;6.00;4.00;;;;;19.35;64.95;101443.53;5073398;28;45361;-73
2022/07/27 07:32:50;;;;;;;;;3.67;3.67;;;;;19.45;64.85;101453.88;5079916;28;45303;-73
2022/07/27 07:35:16;;;;;;;;;5.33;5.33;;;;;19.51;64.53;101452.97;5080005;28;45371;-74
2022/07/27 07:37:41;;;;;;;;;8.67;6.33;;;;;19.59;64.20;101452.72;5093063;27;45395;-73
2022/07/27 07:40:09;;;;;;;;;5.33;5.33;;;;;19.69;64.42;101463.03;5080057;28;45281;-73
2022/07/27 07:42:51;;;;;;;;;7.67;7.00;;;;;19.74;64.11;101460.50;5079390;28;46413;-72
2022/07/27 07:45:17;;;;;;;;;6.00;6.00;;;;;19.79;63.96;101462.56;5085334;27;45442;-73
2022/07/27 07:47:43;;;;;;;;;6.33;6.33;;;;;19.76;64.24;101453.03;5078494;28;45261;-73
2022/07/27 07:50:08;;;;;;;;;8.67;7.00;;;;;19.91;64.02;101446.50;5083119;27;45590;-73
2022/07/27 07:52:34;;;;;;;;;5.00;5.00;;;;;20.05;63.86;101453.44;5078250;28;48413;-73
2022/07/27 07:54:59;;;;;;;;;6.67;5.33;;;;;20.15;63.24;101454.81;5079471;28;45380;-73
2022/07/27 07:57:24;;;;;;;;;8.00;8.00;;;;;20.14;63.37;101454.00;5079873;28;45270;-73
2022/07/27 07:59:50;;;;;;;;;10.00;7.67;;;;;20.24;63.29;101458.06;5079503;28;45432;-73
2022/07/27 08:02:15;;;;;;;;;9.00;6.00;;;;;20.28;63.07;101457.41;5079244;28;46240;-73
2022/07/27 08:04:40;;;;;;;;;8.67;7.33;;;;;20.35;62.72;101453.81;5079555;28;45253;-73
2022/07/27 08:07:06;;;;;;;;;8.00;8.00;;;;;20.45;62.63;101459.53;5078461;28;45337;-73
2022/07/27 08:09:31;;;;;;;;;5.33;5.33;;;;;20.53;62.73;101453.81;5078192;28;46776;-73
2022/07/27 08:11:57;;;;;;;;;6.67;5.67;;;;;20.60;62.13;101455.63;5077517;28;46006;-73
2022/07/27 08:14:25;;;;;;;;;6.33;6.33;;;;;20.65;62.38;101453.91;5085680;27;45518;-74
2022/07/27 08:16:50;;;;;;;;;8.00;8.00;;;;;20.76;61.86;101455.03;5087256;27;45392;-73
2022/07/27 08:19:16;;;;;;;;;5.33;5.33;;;;;20.82;61.48;101445.19;5083542;27;46196;-74
2022/07/27 08:21:41;;;;;;;;;7.00;7.00;;;;;20.89;61.31;101451.34;5079224;28;46265;-73
2022/07/27 08:24:06;;;;;;;;;6.00;6.00;;;;;20.96;61.45;101453.16;5079372;28;45359;-74
2022/07/27 08:26:32;;;;;;;;;8.67;7.00;;;;;21.00;61.34;101449.78;5079581;28;45318;-74
2022/07/27 08:28:57;;;;;;;;;7.00;7.00;;;;;21.00;61.13;101438.16;5093165;27;45450;-74
2022/07/27 08:31:22;;;;;;;;;11.33;8.67;;;;;21.03;60.88;101437.69;5079173;28;46435;-74
2022/07/27 08:33:48;;;;;;;;;7.00;5.33;;;;;21.13;60.78;101446.09;5079165;28;45353;-74
2022/07/27 08:36:13;;;;;;;;;8.33;7.00;;;;;21.21;60.65;101446.81;5083155;27;45383;-74
2022/07/27 08:38:38;;;;;;;;;8.67;8.67;;;;;21.33;60.02;101447.69;5079193;28;45464;-74
2022/07/27 08:41:06;;;;;;;;;6.00;6.00;;;;;21.37;60.07;101434.56;5079189;28;46561;-74
2022/07/27 08:43:32;;;;;;;;;7.33;7.33;;;;;21.50;59.84;101434.34;5077713;28;45620;-73
2022/07/27 08:45:59;;;;;;;;;8.33;7.00;;;;;21.64;59.62;101442.28;5079158;28;45253;-74
2022/07/27 08:48:26;;;;;;;;;8.00;8.00;;;;;21.68;59.19;101427.22;5079103;28;45372;-74
2022/07/27 08:50:52;;;;;;;;;10.00;10.00;;;;;21.74;58.56;101420.06;5078710;28;45400;-74
2022/07/27 08:53:20;;;;;;;;;9.33;9.33;;;;;21.77;58.10;101435.84;5077414;28;45359;-73
2022/07/27 08:55:46;;;;;;;;;10.33;10.33;;;;;21.78;58.02;101427.50;5079099;28;45223;-74
2022/07/27 08:58:13;;;;;;;;;8.67;8.33;;;;;21.84;57.49;101433.84;5078534;28;46227;-74
2022/07/27 09:00:42;;;;;;;;;9.00;9.00;;;;;21.86;57.55;101423.63;5078754;28;45382;-74
2022/07/27 09:03:13;;;;;;;;;9.00;8.00;;;;;21.92;57.72;101422.69;5078692;27;45322;-74
2022/07/27 09:05:50;;;;;;;;;8.33;8.33;;;;;22.01;57.14;101428.59;5078956;28;45355;-73
2022/07/27 09:08:26;;;;;;;;;8.33;8.33;;;;;22.03;56.64;101431.06;5078504;28;45408;-74
2022/07/27 09:10:53;;;;;;;;;8.00;6.67;;;;;22.09;57.36;101432.81;5078653;28;45648;-74
2022/07/27 09:13:28;;;;;;;;;7.00;7.00;;;;;22.25;56.45;101441.28;5076973;28;45462;-74
2022/07/27 09:15:58;;;;;;;;;10.33;9.67;;;;;22.33;56.26;101436.31;5084855;27;45437;-74
2022/07/27 09:18:25;;;;;;;;;9.00;7.00;;;;;22.42;56.35;101435.97;5086776;27;45302;-74
2022/07/27 09:21:27;;;;;;;;;11.33;8.00;;;;;22.57;54.68;101433.63;5082179;28;45785;-74
2022/07/27 09:24:12;;;;;;;;;9.00;8.67;;;;;22.68;54.73;101433.81;5019405;28;45288;-73
2022/07/27 09:26:38;;;;;;;;;7.00;6.00;;;;;22.75;54.00;101436.41;5075195;28;45248;-74
2022/07/27 09:29:06;;;;;;;;;4.67;4.67;;;;;22.78;53.20;101434.03;5081647;28;45308;-73
2022/07/27 09:31:42;;;;;;;;;6.00;6.00;;;;;22.82;52.80;101426.25;5089035;27;46629;-73
2022/07/27 09:34:08;;;;;;;;;7.33;6.00;;;;;22.93;52.58;101433.50;5081745;28;45418;-74
2022/07/27 09:36:49;;;;;;;;;5.00;5.00;;;;;22.94;51.94;101418.94;5082155;28;45283;-74
2022/07/27 09:39:18;;;;;;;;;7.00;7.00;;;;;23.03;51.38;101430.19;5081575;28;45311;-74
2022/07/27 09:41:49;;;;;;;;;7.67;7.67;;;;;23.12;52.56;101432.50;5081757;28;48286;-73
2022/07/27 09:44:15;;;;;;;;;7.33;7.33;;;;;23.16;51.61;101429.06;5081309;28;45394;-74
2022/07/27 09:46:45;;;;;;;;;5.00;5.00;;;;;23.16;51.79;101422.81;5082048;28;45334;-73
2022/07/27 09:49:32;;;;;;;;;6.00;6.00;;;;;23.25;50.49;101431.41;5094184;27;46334;-73
2022/07/27 09:51:59;;;;;;;;;8.00;8.00;;;;;23.32;51.22;101429.38;5081505;28;46312;-73
2022/07/27 09:54:25;;;;;;;;;8.33;7.00;;;;;23.40;50.24;101430.91;5081362;28;45255;-74
2022/07/27 09:56:58;;;;;;;;;5.00;5.00;;;;;23.55;50.17;101436.56;5082046;27;45476;-73
2022/07/27 09:59:24;;;;;;;;;5.00;5.00;;;;;23.61;48.83;101432.03;5081538;28;45493;-74
2022/07/27 10:01:50;;;;;;;;;8.00;7.00;;;;;23.64;49.40;101428.03;5081166;28;45341;-74
2022/07/27 10:04:16;;;;;;;;;7.00;7.00;;;;;23.75;49.42;101435.25;5088056;27;45368;-74
2022/07/27 10:06:42;;;;;;;;;8.00;7.00;;;;;23.82;48.94;101426.94;5080204;28;45316;-73
2022/07/27 10:09:07;;;;;;;;;5.67;4.33;;;;;23.87;48.34;101418.91;5081281;28;45315;-73
2022/07/27 10:11:34;;;;;;;;;4.00;4.00;;;;;23.94;46.69;101416.00;5081138;28;45540;-74
2022/07/27 10:13:59;;;;;;;;;3.33;3.33;;;;;24.08;48.42;101420.03;5081285;28;45408;-73
2022/07/27 10:16:30;;;;;;;;;5.33;5.33;;;;;24.23;48.32;101418.63;5086989;27;45372;-74
2022/07/27 10:19:06;;;;;;;;;5.00;5.00;;;;;24.45;47.95;101421.34;5080362;27;46305;-73
2022/07/27 10:21:33;;;;;;;;;5.00;3.67;;;;;24.53;47.48;101420.09;5080931;28;45402;-73
2022/07/27 10:24:12;;;;;;;;;4.00;4.00;;;;;24.62;46.83;101414.22;5080886;28;45325;-74
2022/07/27 10:26:42;;;;;;;;;4.00;4.00;;;;;24.75;46.53;101416.53;5081199;28;45437;-73
2022/07/27 10:29:13;;;;;;;;;7.00;7.00;;;;;24.90;46.23;101412.41;5080826;28;45369;-74
2022/07/27 10:31:41;;;;;;;;;4.33;4.33;;;;;24.99;46.52;101404.63;5089013;27;48452;-74
2022/07/27 10:34:09;;;;;;;;;6.67;6.33;;;;;25.11;45.95;101404.47;5080727;28;45297;-74
2022/07/27 10:36:34;;;;;;;;;5.00;4.00;;;;;25.26;45.75;101414.66;5081166;28;45323;-73
2022/07/27 10:39:03;;;;;;;;;7.00;6.00;;;;;25.38;45.84;101403.63;5080580;28;45501;-74
2022/07/27 10:41:33;;;;;;;;;5.00;3.67;;;;;25.57;44.51;101413.03;5085917;27;47544;-73
2022/07/27 10:44:16;;;;;;;;;3.33;3.33;;;;;25.68;43.80;101403.06;5080482;28;45477;-73
2022/07/27 10:46:42;;;;;;;;;5.00;5.00;;;;;25.87;43.80;101408.09;5081039;28;45353;-74
2022/07/27 10:49:22;;;;;;;;;5.00;5.00;;;;;26.06;44.25;101403.03;5092779;27;47396;-74
2022/07/27 10:51:48;;;;;;;;;3.00;3.00;;;;;26.27;43.56;101405.88;5080621;28;46505;-73
2022/07/27 10:54:35;;;;;;;;;5.00;5.00;;;;;26.24;42.84;101405.59;5080428;28;45509;-74
2022/07/27 10:57:03;;;;;;;;;6.67;5.00;;;;;25.98;41.80;101395.38;5067770;28;45322;-73
2022/07/27 10:59:37;;;;;;;;;6.00;6.00;;;;;25.98;42.10;101400.81;5080671;28;45584;-73
2022/07/27 11:02:13;;;;;;;;;4.33;4.33;;;;;26.06;41.74;101403.03;5080420;28;46665;-74
2022/07/27 11:04:43;;;;;;;;;4.00;4.00;;;;;26.19;41.85;101401.75;5090345;27;45399;-74
2022/07/27 11:07:09;;;;;;;;;5.00;5.00;;;;;26.14;41.77;101388.13;5079568;28;45480;-73
2022/07/27 11:09:41;;;;;;;;;5.00;3.00;;;;;26.08;41.42;101381.00;5078955;28;46425;-73
2022/07/27 11:12:09;;;;;;;;;4.00;4.00;;;;;26.03;40.84;101387.22;5079650;28;46918;-74
2022/07/27 11:14:50;;;;;;;;;3.33;3.33;;;;;26.20;41.17;101388.94;5080545;28;45413;-74
2022/07/27 11:17:19;;;;;;;;;5.33;5.33;;;;;26.36;41.47;101378.16;5088205;27;45405;-74
2022/07/27 11:19:54;;;;;;;;;4.00;4.00;;;;;26.64;41.48;101376.06;5075576;28;46154;-74
2022/07/27 11:22:51;;;;;;;;;2.00;2.00;;;;;26.97;40.35;101373.97;5079676;28;46375;-74
2022/07/27 11:25:17;;;;;;;;;3.00;3.00;;;;;27.17;39.89;101369.66;5045728;28;45406;-73
2022/07/27 11:27:49;;;;;;;;;2.00;2.00;;;;;27.30;38.33;101379.19;5080233;28;45465;-74